Fort Gillem, Georgia
Current Conditions -  °F | °C
As of 12:52 PM on Thursday 30 Oct 2014 (Local Time) from KATL Reporting Station
Few Clouds Few Clouds  
Wind Chill: 64°   Ceiling: Unl
Heat Index: 64°   Visibility: 10mi
Dew Point: 40°   Wind: 3mph
Humidity: 41%   Direction: 360°N
Pressure: 30.06"   Gusts: NA
Location:  33.6133°N, 84.3728°W
Report Text: KATL 301652Z 36003KT 10SM FEW055 18/04 A3006 RMK AO2 SLP179 T01780044
Loading
Personal Weather Stations






























Interactive Weather Map
Tropical Storm Tracking
New forecast layout! Learn more

10-Day Weather Forecast

Advertisements
Track Severe Weather on mobile